Time;durP1;ratioP1;P1;durP2;ratioP2;P2;SDS_P1;SDS_P2;PMS_P1;PMS_P2;Temp;Humidity;BMP_temperature;BMP_pressure;BME280_temperature;BME280_humidity;BME280_pressure;Samples;Min_cycle;Max_cycle;Signal;HPM_P1;HPM_P2
2022/12/19 00:01:26;;;;;;;39.72;21.70;;;;;;;1.86;95.45;101874.81;5062766;28;20753;-43
2022/12/19 00:03:56;;;;;;;38.95;21.50;;;;;;;1.86;95.92;101871.41;5059372;28;20043;-42
2022/12/19 00:06:23;;;;;;;39.22;21.27;;;;;;;1.87;96.49;101865.56;5062386;28;20024;-41
2022/12/19 00:08:50;;;;;;;38.97;21.30;;;;;;;1.87;96.97;101853.75;5061474;28;20024;-42
2022/12/19 00:11:17;;;;;;;40.17;21.60;;;;;;;1.92;97.39;101846.53;5059366;28;20049;-41
2022/12/19 00:13:42;;;;;;;36.85;21.45;;;;;;;1.96;97.75;101852.72;5064466;28;20484;-46
2022/12/19 00:16:23;;;;;;;39.03;21.02;;;;;;;1.98;98.09;101841.94;5061101;28;20040;-43
2022/12/19 00:18:49;;;;;;;37.85;20.88;;;;;;;2.01;98.89;101844.72;5062410;28;20057;-42
2022/12/19 00:21:18;;;;;;;40.15;20.75;;;;;;;2.04;99.13;101850.00;5065079;28;20033;-41
2022/12/19 00:23:44;;;;;;;35.17;20.20;;;;;;;2.06;99.31;101847.59;5057435;28;20024;-42
2022/12/19 00:26:14;;;;;;;38.00;21.63;;;;;;;2.09;99.47;101850.38;5059830;28;20571;-42
2022/12/19 00:28:42;;;;;;;39.95;21.02;;;;;;;2.10;99.71;101840.34;5063825;28;20021;-41
2022/12/19 00:31:07;;;;;;;39.05;21.88;;;;;;;2.13;99.74;101832.97;5061469;28;20027;-43
2022/12/19 00:33:33;;;;;;;36.85;20.70;;;;;;;2.14;99.70;101832.22;5063276;28;20040;-41
2022/12/19 00:36:05;;;;;;;36.40;20.48;;;;;;;2.18;99.47;101830.78;5059065;28;20056;-42
2022/12/19 00:38:31;;;;;;;37.75;21.70;;;;;;;2.18;99.18;101828.22;5060273;28;20029;-42
2022/12/19 00:41:30;;;;;;;39.03;21.40;;;;;;;2.24;99.65;101804.97;5056089;28;20033;-41
2022/12/19 00:43:58;;;;;;;38.20;21.63;;;;;;;2.23;98.96;101809.19;5052860;28;20127;-43
2022/12/19 00:46:24;;;;;;;38.10;20.58;;;;;;;2.26;98.96;101803.47;5055546;28;20036;-43
2022/12/19 00:48:49;;;;;;;38.65;21.70;;;;;;;2.25;98.92;101802.59;5059020;28;20499;-42
2022/12/19 00:51:17;;;;;;;38.03;20.90;;;;;;;2.25;99.05;101797.50;5058082;28;20171;-42
2022/12/19 00:53:44;;;;;;;38.13;21.38;;;;;;;2.25;98.93;101801.72;5059992;28;20532;-42
2022/12/19 00:56:16;;;;;;;42.97;22.27;;;;;;;2.25;98.95;101800.06;5058463;28;20068;-43
2022/12/19 00:58:42;;;;;;;40.92;22.27;;;;;;;2.26;98.85;101789.13;5057610;28;20474;-42
2022/12/19 01:01:14;;;;;;;37.55;21.60;;;;;;;2.29;98.83;101788.47;5054274;28;20173;-42
2022/12/19 01:03:40;;;;;;;38.15;20.83;;;;;;;2.31;98.67;101776.78;5055264;28;20025;-41
2022/12/19 01:06:05;;;;;;;38.17;21.40;;;;;;;2.33;98.83;101780.31;5056106;28;20048;-43
2022/12/19 01:08:31;;;;;;;39.08;21.40;;;;;;;2.32;98.84;101783.63;5060315;28;20093;-42
2022/12/19 01:10:56;;;;;;;39.88;21.83;;;;;;;2.34;98.83;101782.97;5057634;28;20068;-41
2022/12/19 01:13:23;;;;;;;42.35;21.55;;;;;;;2.35;98.88;101783.84;5060833;28;20951;-41
2022/12/19 01:15:48;;;;;;;37.63;21.35;;;;;;;2.36;99.12;101783.06;5060260;28;20032;-42
2022/12/19 01:18:13;;;;;;;37.95;21.23;;;;;;;2.37;98.95;101780.69;5058025;28;20028;-41
2022/12/19 01:20:40;;;;;;;37.58;22.10;;;;;;;2.38;99.13;101763.78;5058920;28;20032;-41
2022/12/19 01:23:07;;;;;;;38.80;21.55;;;;;;;2.40;99.32;101757.16;5059942;28;20036;-42
2022/12/19 01:25:34;;;;;;;37.08;21.27;;;;;;;2.41;99.32;101764.00;5064308;28;20024;-41
2022/12/19 01:27:59;;;;;;;35.72;21.05;;;;;;;2.45;99.08;101760.06;5061159;28;20040;-42
2022/12/19 01:30:26;;;;;;;42.25;21.67;;;;;;;2.46;99.18;101761.81;5057702;28;20035;-43
2022/12/19 01:32:51;;;;;;;38.47;21.73;;;;;;;2.43;99.28;101749.78;5059510;28;20035;-41
2022/12/19 01:35:16;;;;;;;42.35;22.08;;;;;;;2.46;99.23;101769.44;5064407;28;20036;-42
2022/12/19 01:37:42;;;;;;;40.03;21.40;;;;;;;2.47;99.20;101759.38;5058605;28;20032;-43
2022/12/19 01:40:09;;;;;;;38.50;21.17;;;;;;;2.49;99.08;101754.41;5056635;28;20503;-44
2022/12/19 01:42:36;;;;;;;36.70;21.48;;;;;;;2.48;98.93;101760.25;5054860;28;20040;-44
2022/12/19 01:45:04;;;;;;;37.28;20.77;;;;;;;2.50;99.15;101753.66;5055702;28;20048;-44
2022/12/19 01:47:32;;;;;;;37.88;21.20;;;;;;;2.48;98.82;101751.00;5056386;28;20043;-42
2022/12/19 01:49:57;;;;;;;38.10;21.65;;;;;;;2.49;98.79;101750.25;5059281;28;20028;-43
2022/12/19 01:52:23;;;;;;;37.15;20.70;;;;;;;2.50;98.90;101753.66;5057478;28;20044;-41
2022/12/19 01:54:49;;;;;;;38.72;21.92;;;;;;;2.47;98.71;101739.06;5056038;28;20033;-42
2022/12/19 01:57:17;;;;;;;38.22;21.92;;;;;;;2.50;98.73;101748.59;5053308;28;20560;-41
2022/12/19 01:59:51;;;;;;;35.72;21.52;;;;;;;2.51;98.89;101743.63;5054180;28;20396;-42
2022/12/19 02:02:24;;;;;;;39.30;21.17;;;;;;;2.54;98.98;101740.41;5053868;28;20432;-41
2022/12/19 02:04:49;;;;;;;37.90;21.52;;;;;;;2.52;98.92;101747.03;5052475;28;20029;-42
2022/12/19 02:07:17;;;;;;;38.40;21.75;;;;;;;2.51;98.99;101738.53;5054801;28;20045;-42
2022/12/19 02:09:45;;;;;;;38.80;21.58;;;;;;;2.52;99.05;101740.31;5055101;28;20408;-41
2022/12/19 02:12:10;;;;;;;39.95;22.95;;;;;;;2.53;99.16;101736.13;5052531;28;20064;-42
2022/12/19 02:14:36;;;;;;;38.20;21.27;;;;;;;2.54;99.57;101720.97;5057932;28;20044;-42
2022/12/19 02:17:09;;;;;;;37.38;22.00;;;;;;;2.54;99.54;101710.81;5053613;28;20064;-42
2022/12/19 02:19:52;;;;;;;39.95;21.48;;;;;;;2.58;100.00;101710.28;5051988;28;20036;-41
2022/12/19 02:22:20;;;;;;;36.97;20.45;;;;;;;2.58;100.00;101710.28;5057286;28;20754;-42
2022/12/19 02:25:33;;;;;;;37.50;21.42;;;;;;;2.63;100.00;101708.09;5052229;28;20541;-42
2022/12/19 02:28:39;;;;;;;40.05;21.88;;;;;;;2.65;100.00;101702.34;5052591;28;20040;-41
2022/12/19 02:31:04;;;;;;;35.78;21.08;;;;;;;2.63;100.00;101705.56;5052310;28;20071;-45
2022/12/19 02:33:39;;;;;;;39.65;21.80;;;;;;;2.65;100.00;101691.31;5056137;28;20416;-42
2022/12/19 02:36:18;;;;;;;41.30;21.95;;;;;;;2.63;100.00;101688.66;5056049;28;20548;-44
2022/12/19 02:38:57;;;;;;;39.83;22.35;;;;;;;2.68;100.00;101691.53;5057479;28;20050;-43
2022/12/19 02:41:41;;;;;;;39.60;20.90;;;;;;;2.67;100.00;101692.31;5057993;28;20100;-41
2022/12/19 02:44:16;;;;;;;39.35;21.70;;;;;;;2.69;100.00;101680.63;5057708;28;20028;-41
2022/12/19 02:46:44;;;;;;;38.88;21.50;;;;;;;2.71;100.00;101670.56;5053206;28;20107;-40
2022/12/19 02:49:10;;;;;;;38.70;22.30;;;;;;;2.69;100.00;101673.88;5056280;28;20361;-41
2022/12/19 02:51:36;;;;;;;38.35;21.83;;;;;;;2.73;100.00;101659.75;5055544;28;20067;-44
2022/12/19 02:54:02;;;;;;;37.20;21.55;;;;;;;2.75;100.00;101662.41;5053021;28;20060;-42
2022/12/19 02:57:13;;;;;;;35.25;20.05;;;;;;;2.81;100.00;101656.09;5057385;28;20033;-42
2022/12/19 03:00:12;;;;;;;37.95;20.30;;;;;;;2.83;100.00;101654.53;5035604;28;20493;-41
2022/12/19 03:03:05;;;;;;;39.03;20.10;;;;;;;2.86;100.00;101658.97;5051441;28;20017;-42
2022/12/19 03:05:35;;;;;;;35.72;19.80;;;;;;;2.89;100.00;101651.56;5055348;28;20025;-41
2022/12/19 03:08:13;;;;;;;33.42;19.90;;;;;;;2.92;100.00;101657.75;5054111;28;20055;-42
2022/12/19 03:10:45;;;;;;;38.75;20.80;;;;;;;2.94;100.00;101653.66;5054981;28;20049;-45
2022/12/19 03:13:22;;;;;;;35.05;19.33;;;;;;;2.95;100.00;101647.78;5056104;28;20029;-42
2022/12/19 03:15:48;;;;;;;34.58;19.20;;;;;;;2.99;100.00;101656.53;5057595;28;20560;-43
2022/12/19 03:18:13;;;;;;;37.60;19.48;;;;;;;3.01;100.00;101656.63;5057696;28;20097;-43
2022/12/19 03:20:53;;;;;;;33.75;18.77;;;;;;;3.05;100.00;101656.09;5060643;28;20099;-42
2022/12/19 03:23:19;;;;;;;33.47;19.55;;;;;;;3.06;100.00;101658.72;5059286;28;20032;-44
2022/12/19 03:25:49;;;;;;;32.60;18.90;;;;;;;3.09;100.00;101648.75;5059676;28;20025;-42
2022/12/19 03:28:20;;;;;;;;;;;;;;;3.17;100.00;101647.66;5055739;28;20032;-42
2022/12/19 03:30:46;;;;;;;31.48;17.42;;;;;;;3.15;100.00;101643.22;5055809;28;19921;-43
2022/12/19 03:33:15;;;;;;;31.95;18.52;;;;;;;3.17;100.00;101641.69;5059440;28;20058;-42
2022/12/19 03:35:42;;;;;;;35.80;19.85;;;;;;;3.20;100.00;101646.97;5057766;28;20546;-43
2022/12/19 03:38:09;;;;;;;34.72;18.23;;;;;;;3.21;100.00;101634.38;5057419;28;20038;-43
2022/12/19 03:40:37;;;;;;;32.08;17.70;;;;;;;3.26;100.00;101626.19;5059005;28;20500;-43
2022/12/19 03:43:08;;;;;;;31.58;18.73;;;;;;;3.28;100.00;101637.38;5055940;28;20384;-43
2022/12/19 03:46:10;;;;;;;32.17;17.33;;;;;;;3.31;100.00;101632.47;5060147;28;20448;-42
2022/12/19 03:48:50;;;;;;;27.88;16.65;;;;;;;3.34;100.00;101632.72;5059566;28;20029;-43
2022/12/19 03:51:36;;;;;;;28.17;16.17;;;;;;;3.36;100.00;101628.59;5055050;28;20043;-42
2022/12/19 03:54:23;;;;;;;26.98;15.65;;;;;;;3.41;100.00;101625.59;5056433;28;20377;-40
2022/12/19 03:57:13;;;;;;;28.35;15.30;;;;;;;3.45;100.00;101613.97;5062365;28;20028;-43
2022/12/19 04:00:03;;;;;;;28.50;15.80;;;;;;;3.49;100.00;101616.84;5058202;28;20033;-42
2022/12/19 04:02:33;;;;;;;26.05;15.98;;;;;;;3.54;100.00;101614.59;5062148;28;20358;-42
2022/12/19 04:05:03;;;;;;;28.00;16.70;;;;;;;3.56;100.00;101618.13;5057201;28;20023;-41
2022/12/19 04:07:30;;;;;;;27.67;15.23;;;;;;;3.60;100.00;101614.16;5058065;28;20505;-43
2022/12/19 04:09:57;;;;;;;25.95;14.73;;;;;;;3.64;100.00;101608.47;5060472;28;20025;-43
2022/12/19 04:12:35;;;;;;;26.52;14.13;;;;;;;3.67;100.00;101616.31;5059700;28;20040;-41
2022/12/19 04:15:00;;;;;;;24.55;14.55;;;;;;;3.70;100.00;101609.78;5058778;28;20055;-42
2022/12/19 04:17:43;;;;;;;25.08;14.55;;;;;;;3.76;100.00;101609.28;5057010;28;20021;-41
2022/12/19 04:20:10;;;;;;;23.35;13.82;;;;;;;3.80;100.00;101595.13;5053906;28;20028;-42
2022/12/19 04:22:46;;;;;;;22.45;13.25;;;;;;;3.84;100.00;101603.06;5055761;28;20024;-43
2022/12/19 04:25:17;;;;;;;23.98;13.30;;;;;;;3.89;100.00;101593.22;5058673;28;20029;-44
2022/12/19 04:27:49;;;;;;;20.42;12.68;;;;;;;3.91;100.00;101596.72;5057280;28;20493;-41
2022/12/19 04:30:17;;;;;;;21.85;12.95;;;;;;;3.98;100.00;101593.81;5059325;28;20543;-41
2022/12/19 04:32:43;;;;;;;20.88;12.50;;;;;;;4.01;100.00;101584.72;5060600;28;20055;-44
2022/12/19 04:35:09;;;;;;;21.30;13.13;;;;;;;4.04;100.00;101579.81;5053484;28;20078;-42
2022/12/19 04:37:35;;;;;;;21.60;12.60;;;;;;;4.10;100.00;101586.09;5059810;28;20036;-42
2022/12/19 04:40:00;;;;;;;20.17;12.70;;;;;;;4.12;100.00;101582.84;5062627;28;20032;-42
2022/12/19 04:42:26;;;;;;;21.58;12.63;;;;;;;4.17;100.00;101591.69;5060106;28;20086;-42
2022/12/19 04:44:51;;;;;;;18.75;11.95;;;;;;;4.20;100.00;101583.38;5056788;28;20033;-42
2022/12/19 04:47:16;;;;;;;22.58;12.60;;;;;;;4.23;100.00;101581.91;5052415;28;20025;-42
2022/12/19 04:49:42;;;;;;;19.52;12.18;;;;;;;4.26;100.00;101584.66;5057407;28;20055;-41
2022/12/19 04:52:07;;;;;;;18.30;11.93;;;;;;;4.29;100.00;101591.59;5057773;28;20076;-44
2022/12/19 04:54:32;;;;;;;18.60;11.27;;;;;;;4.31;100.00;101584.97;5057885;28;20202;-45
2022/12/19 04:56:58;;;;;;;18.50;11.50;;;;;;;4.35;100.00;101597.09;5061240;28;20090;-42
2022/12/19 04:59:23;;;;;;;18.98;11.43;;;;;;;4.40;100.00;101597.38;5060556;28;20111;-44
2022/12/19 05:01:48;;;;;;;18.00;10.85;;;;;;;4.42;100.00;101586.50;5054743;28;20042;-41
2022/12/19 05:04:14;;;;;;;18.35;11.60;;;;;;;4.46;100.00;101579.97;5056235;28;20480;-42
2022/12/19 05:06:39;;;;;;;20.10;11.50;;;;;;;4.47;100.00;101592.78;5054476;28;20032;-41
2022/12/19 05:09:05;;;;;;;17.85;11.63;;;;;;;4.53;100.00;101582.97;5057335;28;20174;-45
2022/12/19 05:11:30;;;;;;;18.10;11.77;;;;;;;4.57;100.00;101584.94;5054314;28;20155;-43
2022/12/19 05:13:57;;;;;;;15.90;11.30;;;;;;;4.62;100.00;101582.69;5057609;28;20036;-42
2022/12/19 05:16:23;;;;;;;18.63;11.82;;;;;;;4.64;100.00;101582.78;5056838;28;20031;-39
2022/12/19 05:18:48;;;;;;;17.70;11.63;;;;;;;4.68;100.00;101578.00;5055364;28;20028;-40
2022/12/19 05:21:13;;;;;;;17.15;10.88;;;;;;;4.70;100.00;101573.88;5055742;28;20100;-40
2022/12/19 05:23:39;;;;;;;15.13;10.93;;;;;;;4.72;100.00;101574.84;5055406;28;20054;-40
2022/12/19 05:26:05;;;;;;;16.67;11.18;;;;;;;4.72;100.00;101562.09;5059153;28;20334;-40
2022/12/19 05:28:31;;;;;;;17.80;11.68;;;;;;;4.78;100.00;101574.34;5059696;28;20401;-40
2022/12/19 05:31:12;;;;;;;17.02;11.77;;;;;;;4.80;100.00;101570.25;5055409;28;20060;-42
2022/12/19 05:33:38;;;;;;;19.10;12.40;;;;;;;4.83;100.00;101563.66;5058060;28;20051;-41
2022/12/19 05:36:05;;;;;;;18.50;11.93;;;;;;;4.86;100.00;101572.28;5057642;28;20103;-40
2022/12/19 05:38:31;;;;;;;18.58;11.23;;;;;;;4.93;100.00;101564.25;5055685;28;20036;-42
2022/12/19 05:40:56;;;;;;;18.38;11.90;;;;;;;4.94;100.00;101566.88;5053669;28;20029;-40
2022/12/19 05:43:22;;;;;;;17.80;11.50;;;;;;;4.98;100.00;101570.50;5052481;28;21240;-40
2022/12/19 05:45:47;;;;;;;17.77;11.60;;;;;;;5.01;100.00;101563.03;5054304;28;20043;-40
2022/12/19 05:48:12;;;;;;;19.85;11.82;;;;;;;5.02;100.00;101559.69;5056655;28;20037;-41
2022/12/19 05:50:38;;;;;;;19.08;12.10;;;;;;;5.07;100.00;101554.09;5057610;28;20032;-39
2022/12/19 05:53:03;;;;;;;19.35;11.73;;;;;;;5.09;100.00;101554.16;5054678;28;20025;-40
2022/12/19 05:55:29;;;;;;;18.65;11.77;;;;;;;5.12;100.00;101556.91;5062370;28;20158;-39
2022/12/19 05:57:54;;;;;;;19.15;12.10;;;;;;;5.14;100.00;101559.56;5054743;28;20033;-41
2022/12/19 06:00:20;;;;;;;18.10;11.48;;;;;;;5.19;100.00;101566.69;5055065;28;20037;-40
2022/12/19 06:02:46;;;;;;;15.80;11.00;;;;;;;5.20;100.00;101565.91;5056077;28;20043;-40
2022/12/19 06:05:12;;;;;;;17.00;12.20;;;;;;;5.25;100.00;101563.66;5055776;28;20054;-41
2022/12/19 06:07:37;;;;;;;18.23;11.25;;;;;;;5.28;100.00;101567.28;5055503;28;20044;-40
2022/12/19 06:10:03;;;;;;;19.60;11.25;;;;;;;5.28;100.00;101559.63;5055537;28;20507;-40
2022/12/19 06:12:29;;;;;;;18.38;11.20;;;;;;;5.30;100.00;101558.03;5060406;28;20099;-39
2022/12/19 06:14:54;;;;;;;17.40;10.68;;;;;;;5.32;100.00;101561.53;5054835;28;20057;-38
2022/12/19 06:17:19;;;;;;;16.13;11.05;;;;;;;5.35;100.00;101566.84;5058872;28;20094;-39
2022/12/19 06:19:45;;;;;;;14.68;10.23;;;;;;;5.37;100.00;101555.06;5054046;28;20032;-38
2022/12/19 06:22:10;;;;;;;16.95;10.60;;;;;;;5.41;100.00;101573.13;5053451;28;20131;-44
2022/12/19 06:24:35;;;;;;;15.07;10.82;;;;;;;5.43;100.00;101567.31;5057659;28;20036;-40
2022/12/19 06:27:01;;;;;;;16.38;11.25;;;;;;;5.43;100.00;101563.88;5056993;28;20063;-39
2022/12/19 06:29:26;;;;;;;17.02;11.13;;;;;;;5.48;100.00;101565.03;5060417;28;20032;-41
2022/12/19 06:31:51;;;;;;;19.73;11.80;;;;;;;5.50;100.00;101561.78;5060260;28;20036;-39
2022/12/19 06:34:17;;;;;;;20.02;11.65;;;;;;;5.52;100.00;101561.84;5057534;28;20060;-40
2022/12/19 06:36:42;;;;;;;19.05;12.05;;;;;;;5.54;100.00;101563.72;5055548;28;20489;-40
2022/12/19 06:39:11;;;;;;;15.85;10.77;;;;;;;5.59;100.00;101569.09;5056337;28;20176;-39
2022/12/19 06:44:21;;;;;;;15.18;10.38;;;;;;;5.62;100.00;101577.81;5055708;28;20043;-42
2022/12/19 06:46:46;;;;;;;15.02;10.15;;;;;;;5.64;100.00;101581.34;5054660;28;20436;-38
2022/12/19 06:49:11;;;;;;;17.58;10.45;;;;;;;5.68;100.00;101584.06;5054423;28;20504;-40
2022/12/19 06:51:37;;;;;;;15.40;10.02;;;;;;;5.70;100.00;101578.25;5070357;28;20037;-39
2022/12/19 06:54:03;;;;;;;14.82;10.18;;;;;;;5.73;100.00;101573.34;5057465;28;20132;-39
2022/12/19 06:56:34;;;;;;;16.10;10.65;;;;;;;5.75;100.00;101579.41;5059251;28;20044;-40
2022/12/19 06:58:59;;;;;;;15.63;10.15;;;;;;;5.78;100.00;101574.50;5058737;28;20033;-38
2022/12/19 07:01:46;;;;;;;16.25;10.35;;;;;;;5.78;100.00;101574.50;5053373;28;20401;-38
2022/12/19 07:04:15;;;;;;;15.88;10.10;;;;;;;5.81;100.00;101574.66;5055412;28;20492;-40
2022/12/19 07:06:41;;;;;;;15.80;10.57;;;;;;;5.83;100.00;101574.78;5054546;28;20028;-40
2022/12/19 07:09:06;;;;;;;16.70;10.57;;;;;;;5.82;100.00;101571.31;5055250;28;20029;-41
2022/12/19 07:11:31;;;;;;;14.80;10.15;;;;;;;5.86;100.00;101592.81;5055074;28;20045;-40
2022/12/19 07:13:57;;;;;;;16.70;10.73;;;;;;;5.86;100.00;101575.81;5055876;28;20036;-39
2022/12/19 07:16:24;;;;;;;14.32;10.10;;;;;;;5.90;100.00;101580.31;5062325;28;20147;-40
2022/12/19 07:18:49;;;;;;;15.15;9.93;;;;;;;5.91;100.00;101582.09;5058568;28;20101;-38
2022/12/19 07:21:15;;;;;;;14.93;10.15;;;;;;;5.95;100.00;101564.44;5063672;28;20500;-40
2022/12/19 07:23:41;;;;;;;14.02;10.32;;;;;;;5.95;100.00;101569.53;5059537;28;20864;-38
2022/12/19 07:26:07;;;;;;;15.60;10.13;;;;;;;5.96;100.00;101576.41;5062754;28;20099;-38
2022/12/19 07:28:34;;;;;;;13.98;9.75;;;;;;;5.98;100.00;101567.16;5065336;28;20115;-41
2022/12/19 07:30:59;;;;;;;14.23;9.15;;;;;;;6.00;100.00;101574.09;5060057;28;20028;-38
2022/12/19 07:33:24;;;;;;;13.40;9.10;;;;;;;6.02;100.00;101575.06;5056846;28;20393;-40
2022/12/19 07:35:51;;;;;;;15.68;9.70;;;;;;;6.03;100.00;101581.06;5066343;28;20495;-39
2022/12/19 07:38:16;;;;;;;14.00;10.00;;;;;;;6.04;100.00;101582.81;5057166;28;20033;-40
2022/12/19 07:40:42;;;;;;;13.68;9.88;;;;;;;6.06;100.00;101587.19;5067189;28;20035;-53
2022/12/19 07:43:07;;;;;;;14.57;10.55;;;;;;;6.05;100.00;101585.44;5063291;28;20043;-41
2022/12/19 07:45:36;;;;;;;13.73;9.75;;;;;;;6.09;100.00;101584.84;5061196;28;20032;-42
2022/12/19 07:48:02;;;;;;;14.23;9.43;;;;;;;6.10;100.00;101586.59;5064142;28;20033;-38
2022/12/19 07:50:28;;;;;;;12.00;9.18;;;;;;;6.12;100.00;101596.88;5062916;28;20484;-38
2022/12/19 07:52:53;;;;;;;14.52;9.52;;;;;;;6.13;100.00;101591.03;5064355;28;20370;-38
2022/12/19 07:55:19;;;;;;;12.48;8.55;;;;;;;6.14;100.00;101593.66;5057898;28;20047;-41
2022/12/19 07:57:44;;;;;;;13.20;9.23;;;;;;;6.14;100.00;101587.66;5055959;28;20040;-41
2022/12/19 08:00:10;;;;;;;12.93;8.93;;;;;;;6.16;100.00;101599.72;5071033;28;20103;-42
2022/12/19 08:02:35;;;;;;;12.57;8.50;;;;;;;6.19;100.00;101609.25;5065423;28;20047;-39
2022/12/19 08:05:01;;;;;;;12.40;8.52;;;;;;;6.18;100.00;101610.00;5056187;28;20029;-41
2022/12/19 08:07:26;;;;;;;11.75;8.60;;;;;;;6.22;100.00;101613.63;5058561;28;20024;-40
2022/12/19 08:09:52;;;;;;;11.95;8.38;;;;;;;6.22;100.00;101603.41;5059368;28;20116;-41
2022/12/19 08:12:17;;;;;;;13.68;8.43;;;;;;;6.24;100.00;101600.16;5060066;28;20059;-38
2022/12/19 08:14:42;;;;;;;11.07;7.93;;;;;;;6.25;100.00;101612.16;5059381;28;20024;-41
2022/12/19 08:17:08;;;;;;;13.90;8.57;;;;;;;6.27;100.00;101618.22;5052816;28;20035;-38
2022/12/19 08:19:33;;;;;;;12.50;8.35;;;;;;;6.27;100.00;101619.88;5063493;28;20071;-40
2022/12/19 08:21:59;;;;;;;10.93;8.18;;;;;;;6.29;100.00;101608.94;5059055;28;20036;-40
2022/12/19 08:24:24;;;;;;;13.50;8.48;;;;;;;6.31;100.00;101602.28;5055686;28;20111;-40
2022/12/19 08:26:49;;;;;;;10.82;7.38;;;;;;;6.33;100.00;101603.25;5061911;28;20059;-39
2022/12/19 08:29:15;;;;;;;13.02;7.90;;;;;;;6.34;100.00;101605.00;5057873;28;20518;-40
2022/12/19 08:31:40;;;;;;;11.85;7.47;;;;;;;6.38;100.00;101618.84;5060335;28;20400;-41
2022/12/19 08:34:05;;;;;;;10.82;7.78;;;;;;;6.40;100.00;101619.78;5064880;28;20506;-39
2022/12/19 08:36:31;;;;;;;11.38;7.50;;;;;;;6.42;100.00;101611.41;5055708;28;20083;-39
2022/12/19 08:38:57;;;;;;;10.60;7.40;;;;;;;6.46;100.00;101615.03;5061140;28;20384;-40
2022/12/19 08:41:22;;;;;;;13.15;7.57;;;;;;;6.45;100.00;101609.03;5062230;28;20032;-39
2022/12/19 08:43:50;;;;;;;10.50;7.13;;;;;;;6.48;100.00;101617.66;5065000;28;20037;-41
2022/12/19 08:46:16;;;;;;;10.80;7.05;;;;;;;6.51;100.00;101631.50;5057161;28;20589;-38
2022/12/19 08:48:42;;;;;;;12.85;7.32;;;;;;;6.52;100.00;101622.16;5055023;28;20037;-39
2022/12/19 08:51:07;;;;;;;11.05;7.72;;;;;;;6.54;100.00;101628.22;5054111;28;20481;-39
2022/12/19 08:53:35;;;;;;;13.52;7.25;;;;;;;6.57;100.00;101625.88;5053433;28;20064;-38
2022/12/19 08:56:08;;;;;;;10.82;7.40;;;;;;;6.58;100.00;101613.16;5059127;28;20021;-38
2022/12/19 08:58:34;;;;;;;12.75;7.18;;;;;;;6.62;100.00;101622.78;5058190;28;20465;-38
2022/12/19 09:01:01;;;;;;;12.05;7.45;;;;;;;6.66;100.00;101621.25;5055002;28;20030;-38
2022/12/19 09:03:27;;;;;;;9.93;7.13;;;;;;;6.66;100.00;101623.81;5067859;28;20037;-38
2022/12/19 09:06:02;;;;;;;10.98;7.00;;;;;;;6.68;100.00;101617.13;5052047;28;20113;-43
2022/12/19 09:08:28;;;;;;;9.68;6.95;;;;;;;6.72;100.00;101629.25;5057056;28;20465;-39
2022/12/19 09:11:02;;;;;;;10.65;6.45;;;;;;;6.76;100.00;101630.31;5050146;28;20060;-40
2022/12/19 09:13:29;;;;;;;9.63;6.60;;;;;;;6.78;100.00;101637.25;5052421;28;20029;-40
2022/12/19 09:16:10;;;;;;;9.68;6.30;;;;;;;6.79;100.00;101628.78;5051514;28;20567;-40
2022/12/19 09:18:36;;;;;;;9.48;6.22;;;;;;;6.74;100.00;101625.13;5058950;28;20032;-38
2022/12/19 09:21:02;;;;;;;8.93;6.47;;;;;;;6.82;100.00;101643.44;5057282;28;20439;-40
2022/12/19 09:23:28;;;;;;;10.60;7.05;;;;;;;6.85;100.00;101643.59;5060921;28;20070;-42
2022/12/19 09:25:55;;;;;;;9.13;6.50;;;;;;;6.85;100.00;101641.91;5071414;28;20036;-39
2022/12/19 09:28:21;;;;;;;10.98;7.03;;;;;;;6.88;100.00;101633.56;5061024;28;20232;-40
2022/12/19 09:31:05;;;;;;;10.27;6.55;;;;;;;6.90;100.00;101631.94;5069704;28;20048;-39
2022/12/19 09:33:32;;;;;;;9.45;6.43;;;;;;;6.91;100.00;101633.72;5061043;28;20067;-39
2022/12/19 09:35:57;;;;;;;10.38;6.82;;;;;;;6.93;100.00;101635.56;5064163;28;20096;-42
2022/12/19 09:38:24;;;;;;;10.77;6.05;;;;;;;6.98;100.00;101634.16;5065455;28;20017;-43
2022/12/19 09:41:08;;;;;;;10.25;6.20;;;;;;;6.98;100.00;101629.03;5058764;28;20035;-38
2022/12/19 09:43:49;;;;;;;9.35;6.20;;;;;;;7.01;100.00;101627.44;5060073;28;20032;-39
2022/12/19 09:46:18;;;;;;;10.07;6.93;;;;;;;7.01;100.00;101623.19;5061121;28;20032;-38
2022/12/19 09:48:46;;;;;;;8.48;5.95;;;;;;;7.03;100.00;101631.81;5062884;28;20541;-38
2022/12/19 09:51:30;;;;;;;9.48;5.88;;;;;;;7.06;100.00;101623.47;5062383;28;20025;-41
2022/12/19 09:54:22;;;;;;;10.65;6.25;;;;;;;7.09;100.00;101632.16;5060677;28;20051;-41
2022/12/19 09:56:51;;;;;;;8.23;5.80;;;;;;;7.10;100.00;101633.94;5065167;28;20054;-40
2022/12/19 09:59:31;;;;;;;9.77;5.90;;;;;;;7.12;100.00;101628.91;5065635;28;20051;-41
2022/12/19 10:02:01;;;;;;;;;;;;;;;7.18;100.00;101642.91;5063563;28;20039;-39
2022/12/19 10:04:31;;;;;;;7.60;5.72;;;;;;;7.18;100.00;101645.44;5063308;28;20380;-40
2022/12/19 10:06:56;;;;;;;9.98;5.75;;;;;;;7.19;100.00;101639.53;5060992;28;20024;-40
2022/12/19 10:09:30;;;;;;;9.43;5.68;;;;;;;7.22;100.00;101646.50;5063162;28;20098;-39
2022/12/19 10:12:11;;;;;;;8.63;5.68;;;;;;;7.27;100.00;101645.06;5068883;28;20087;-39
2022/12/19 10:14:48;;;;;;;8.25;6.28;;;;;;;7.29;100.00;101646.03;5064305;28;20133;-40
2022/12/19 10:17:24;;;;;;;9.02;5.90;;;;;;;7.31;100.00;101634.19;5062127;28;20544;-40
2022/12/19 10:20:11;;;;;;;10.02;5.85;;;;;;;7.34;100.00;101633.47;5063172;28;20034;-39
2022/12/19 10:22:51;;;;;;;8.45;6.10;;;;;;;7.37;100.00;101643.88;5065468;28;20481;-41
2022/12/19 10:25:35;;;;;;;9.57;5.63;;;;;;;7.37;100.00;101633.66;5066459;28;20654;-40
2022/12/19 10:28:21;;;;;;;9.00;5.43;;;;;;;7.40;100.00;101632.16;5064651;28;20472;-39
2022/12/19 10:31:03;;;;;;;9.02;5.88;;;;;;;7.42;100.00;101642.47;5060559;28;20112;-39
2022/12/19 10:33:46;;;;;;;9.07;5.55;;;;;;;7.44;100.00;101635.72;5060966;28;20186;-39
2022/12/19 10:36:11;;;;;;;8.07;5.43;;;;;;;7.46;100.00;101646.91;5061331;28;20339;-40
2022/12/19 10:39:22;;;;;;;7.90;5.07;;;;;;;7.49;100.00;101639.41;5064449;28;20032;-38
2022/12/19 10:41:55;;;;;;;7.57;5.50;;;;;;;7.50;100.00;101647.16;5038480;28;20451;-39
2022/12/19 10:44:22;;;;;;;8.90;5.00;;;;;;;7.51;100.00;101648.03;5062984;28;20539;-40
2022/12/19 10:46:49;;;;;;;8.13;5.15;;;;;;;7.52;100.00;101648.16;5065326;28;20039;-39
2022/12/19 10:49:20;;;;;;;9.25;5.35;;;;;;;7.55;100.00;101654.22;5059556;28;20406;-39
2022/12/19 10:51:54;;;;;;;7.57;4.97;;;;;;;7.56;100.00;101635.50;5066979;28;20067;-41
2022/12/19 10:54:25;;;;;;;8.05;5.05;;;;;;;7.55;100.00;101637.19;5066406;28;20440;-38
2022/12/19 10:56:50;;;;;;;7.05;4.90;;;;;;;7.56;100.00;101641.50;5063982;28;20489;-39
2022/12/19 10:59:18;;;;;;;7.18;4.97;;;;;;;7.56;100.00;101630.38;5067729;28;20055;-40
2022/12/19 11:01:44;;;;;;;5.70;5.00;;;;;;;7.59;100.00;101638.22;5065212;28;20055;-40
2022/12/19 11:04:17;;;;;;;8.18;4.95;;;;;;;7.59;100.00;101635.69;5072527;28;20028;-39
2022/12/19 11:07:03;;;;;;;8.00;5.10;;;;;;;7.58;100.00;101632.19;5070354;28;20429;-41
2022/12/19 11:09:34;;;;;;;7.72;5.28;;;;;;;7.58;100.00;101621.97;5063216;28;20032;-41
2022/12/19 11:12:05;;;;;;;8.77;5.25;;;;;;;7.61;100.00;101622.13;5058770;28;20052;-39
2022/12/19 11:14:31;;;;;;;6.53;4.90;;;;;;;7.60;100.00;101622.94;5058873;28;22101;-41
2022/12/19 11:16:57;;;;;;;7.07;5.10;;;;;;;7.60;100.00;101617.81;5058871;28;20074;-41
2022/12/19 11:19:36;;;;;;;8.93;4.75;;;;;;;7.62;100.00;101625.56;5059130;28;20032;-40
2022/12/19 11:22:06;;;;;;;6.60;4.55;;;;;;;7.63;100.00;101607.72;5052065;28;20519;-39
2022/12/19 11:24:38;;;;;;;8.45;4.80;;;;;;;7.65;100.00;101597.59;5060555;28;20111;-39
2022/12/19 11:27:43;;;;;;;8.30;4.80;;;;;;;7.66;100.00;101597.66;5063772;28;20041;-40
2022/12/19 11:30:15;;;;;;;8.38;5.30;;;;;;;7.67;100.00;101607.09;5061892;28;20522;-42